Vitim, Russia
Current Conditions -  °F | °C
As of 8:30 AM on Saturday 25 Oct 2014 (Local Time) from UIBB Reporting Station
Clear Clear  
Wind Chill:   Ceiling: Unl
Heat Index:   Visibility: 4mi
Dew Point:   Wind: 0mph
Humidity: 85%   Direction: NA
Pressure: 30.33"   Gusts: NA
Location:  59.45°N, 112.56°E
Report Text: UIBB 242330Z 00000MPS 6000 SKC M16/M18 Q1027 NOSIG RMKQFE727/0970 30850540
Loading
Personal Weather Stations






























Interactive Weather Map
Tropical Storm Tracking
New forecast layout! Learn more

10-Day Weather Forecast

Advertisements
Track Severe Weather on mobile